Time;durP1;ratioP1;P1;durP2;ratioP2;P2;SDS_P1;SDS_P2;PMS_P1;PMS_P2;Temp;Humidity;BMP_temperature;BMP_pressure;BME280_temperature;BME280_humidity;BME280_pressure;Samples;Min_cycle;Max_cycle;Signal;HPM_P1;HPM_P2
2020/12/02 00:01:01;;;;;;;46.13;18.63;;;;;;;0.36;68.80;100701.22;5103041;28;20036;-68
2020/12/02 00:03:40;;;;;;;37.60;17.53;;;;;;;0.50;68.45;100703.16;5102932;28;20207;-68
2020/12/02 00:06:08;;;;;;;37.97;17.37;;;;;;;0.45;68.53;100710.34;5102936;28;20229;-68
2020/12/02 00:08:43;;;;;;;45.03;17.37;;;;;;;0.53;68.34;100710.84;5102977;28;20039;-68
2020/12/02 00:11:11;;;;;;;54.83;21.23;;;;;;;0.72;67.69;100710.78;5103068;28;20081;-68
2020/12/02 00:13:40;;;;;;;64.50;23.97;;;;;;;0.72;67.75;100706.41;5102860;28;20034;-67
2020/12/02 00:16:07;;;;;;;75.43;27.83;;;;;;;0.53;68.25;100711.69;5103163;28;20024;-67
2020/12/02 00:18:37;;;;;;;66.03;24.47;;;;;;;0.73;67.72;100707.25;5102952;28;20222;-69
2020/12/02 00:21:07;;;;;;;50.63;21.10;;;;;;;0.85;66.88;100712.69;5102862;28;20039;-68
2020/12/02 00:23:33;;;;;;;48.13;20.03;;;;;;;0.92;66.30;100703.63;5102861;28;20032;-68
2020/12/02 00:25:58;;;;;;;49.53;21.10;;;;;;;0.92;66.73;100711.47;5102838;28;20036;-68
2020/12/02 00:28:24;;;;;;;55.83;22.37;;;;;;;0.85;67.26;100719.66;5102686;28;20262;-68
2020/12/02 00:30:49;;;;;;;68.60;25.43;;;;;;;0.70;67.92;100713.44;5102903;28;20098;-67
2020/12/02 00:33:21;;;;;;;116.23;35.13;;;;;;;0.52;67.86;100706.53;5105838;28;20043;-68
2020/12/02 00:35:46;;;;;;;84.87;30.30;;;;;;;0.77;67.50;100717.44;5106561;28;20059;-67
2020/12/02 00:38:14;;;;;;;51.20;22.10;;;;;;;0.90;66.69;100717.69;5106666;28;20035;-68
2020/12/02 00:40:44;;;;;;;44.13;19.87;;;;;;;0.59;67.91;100727.00;5106963;28;20050;-66
2020/12/02 00:43:14;;;;;;;44.40;18.27;;;;;;;0.46;68.16;100725.91;5105753;28;20036;-66
2020/12/02 00:45:40;;;;;;;46.97;18.30;;;;;;;0.57;68.09;100714.97;5107112;28;20359;-67
2020/12/02 00:48:12;;;;;;;66.60;25.23;;;;;;;0.52;68.68;100716.97;5106523;28;20036;-68
2020/12/02 00:50:38;;;;;;;40.30;17.73;;;;;;;0.70;68.66;100715.22;5107100;28;20207;-68
2020/12/02 00:53:05;;;;;;;56.13;20.00;;;;;;;0.81;67.93;100716.38;5106348;28;20263;-68
2020/12/02 00:55:31;;;;;;;174.90;44.07;;;;;;;0.52;68.84;100711.75;5106164;28;20036;-67
2020/12/02 00:57:58;;;;;;;115.80;33.23;;;;;;;0.63;68.18;100710.31;5106309;28;20036;-67
2020/12/02 01:00:28;;;;;;;46.73;17.47;;;;;;;0.44;68.86;100708.69;5106711;28;20083;-68
2020/12/02 01:03:05;;;;;;;111.07;30.37;;;;;;;0.57;68.81;100714.97;5106311;28;20109;-68
2020/12/02 01:05:31;;;;;;;92.30;27.77;;;;;;;0.27;68.96;100715.53;5105257;28;20032;-66
2020/12/02 01:08:16;;;;;;;40.07;15.77;;;;;;;0.16;69.65;100709.16;5106155;28;20036;-67
2020/12/02 01:10:42;;;;;;;30.27;13.47;;;;;;;0.04;69.84;100707.13;5106408;28;20084;-68
2020/12/02 01:13:08;;;;;;;46.70;17.57;;;;;;;0.29;69.37;100707.66;5106052;28;20238;-67
2020/12/02 01:15:34;;;;;;;31.10;12.83;;;;;;;0.29;68.98;100710.25;5106449;28;20198;-67
2020/12/02 01:18:21;;;;;;;74.07;26.13;;;;;;;0.04;69.46;100707.13;5105930;28;20032;-68
2020/12/02 01:20:54;;;;;;;35.30;14.13;;;;;;;-0.07;69.96;100710.19;5106096;28;20039;-67
2020/12/02 01:23:21;;;;;;;44.60;18.37;;;;;;;0.18;69.60;100710.78;5106073;28;20180;-68
2020/12/02 01:25:47;;;;;;;60.97;25.30;;;;;;;0.25;68.92;100703.50;5105885;28;20040;-66
2020/12/02 01:28:21;;;;;;;60.80;24.30;;;;;;;0.38;68.26;100704.59;5105656;28;20202;-67
2020/12/02 01:30:46;;;;;;;;;;;;;;;0.24;68.53;100705.28;5106417;28;20318;-68
2020/12/02 01:33:15;;;;;;;36.97;16.47;;;;;;;-0.02;70.39;100701.25;5105607;28;19908;-67
2020/12/02 01:35:43;;;;;;;31.00;14.30;;;;;;;0.20;69.39;100698.50;5105740;28;20229;-67
2020/12/02 01:38:12;;;;;;;38.07;15.73;;;;;;;0.00;69.67;100701.22;5105529;28;20038;-68
2020/12/02 01:40:38;;;;;;;33.47;14.90;;;;;;;0.05;70.12;100703.59;5106082;28;20042;-67
2020/12/02 01:43:06;;;;;;;38.80;14.87;;;;;;;0.25;69.24;100699.13;5104985;28;20350;-67
2020/12/02 01:45:32;;;;;;;30.40;14.10;;;;;;;0.32;68.59;100702.28;5105743;28;20222;-66
2020/12/02 01:48:25;;;;;;;36.37;16.47;;;;;;;0.45;68.54;100703.38;5105510;28;20044;-68
2020/12/02 01:50:59;;;;;;;32.23;14.93;;;;;;;0.43;67.62;100700.00;5105448;28;20048;-68
2020/12/02 01:53:31;;;;;;;34.17;14.23;;;;;;;0.34;68.12;100691.81;5105256;28;20048;-66
2020/12/02 01:56:02;;;;;;;41.17;16.83;;;;;;;0.42;67.03;100700.94;5105440;28;20215;-68
2020/12/02 01:58:46;;;;;;;45.70;19.13;;;;;;;0.19;67.78;100703.78;5105116;28;20028;-68
2020/12/02 02:01:23;;;;;;;100.35;37.67;;;;;;;0.01;68.42;100696.84;5105175;28;20093;-68
2020/12/02 02:03:50;;;;;;;119.37;42.80;;;;;;;-0.26;69.34;100694.59;5105083;28;20044;-68
2020/12/02 02:06:23;;;;;;;88.53;30.93;;;;;;;-0.32;69.43;100695.72;5104976;28;20078;-67
2020/12/02 02:08:49;;;;;;;64.28;26.65;;;;;;;-0.07;69.26;100705.00;5105364;28;20046;-66
2020/12/02 02:11:20;;;;;;;49.30;21.30;;;;;;;0.09;68.13;100692.97;5104952;28;20318;-67
2020/12/02 02:14:16;;;;;;;45.13;20.20;;;;;;;-0.02;68.52;100688.25;5105249;28;20097;-67
2020/12/02 02:16:45;;;;;;;37.50;15.30;;;;;;;0.08;68.07;100688.69;5104945;28;20060;-68
2020/12/02 02:19:24;;;;;;;36.73;14.97;;;;;;;0.11;68.21;100688.53;5104935;28;20037;-68
2020/12/02 02:21:53;;;;;;;30.50;14.03;;;;;;;0.04;67.99;100692.34;5104853;28;20233;-67
2020/12/02 02:24:19;;;;;;;34.10;15.37;;;;;;;0.16;67.25;100683.09;5104810;28;20055;-66
2020/12/02 02:26:54;;;;;;;32.57;13.40;;;;;;;0.32;66.92;100689.28;5104633;28;20367;-68
2020/12/02 02:29:28;;;;;;;29.43;13.27;;;;;;;0.29;66.88;100694.63;5104849;28;20051;-67
2020/12/02 02:31:58;;;;;;;34.67;14.30;;;;;;;0.29;66.62;100692.03;5104636;28;20031;-68
2020/12/02 02:34:25;;;;;;;41.47;18.17;;;;;;;0.25;66.72;100693.09;5104514;28;20036;-68
2020/12/02 02:36:52;;;;;;;30.37;13.77;;;;;;;0.42;65.42;100689.66;5104436;28;20070;-69
2020/12/02 02:39:18;;;;;;;24.97;12.63;;;;;;;0.44;64.96;100696.50;5104533;28;20035;-68
2020/12/02 02:41:44;;;;;;;28.53;12.50;;;;;;;0.40;64.83;100700.16;5104426;28;20040;-68
2020/12/02 02:44:12;;;;;;;29.13;13.23;;;;;;;0.31;65.07;100690.19;5104375;28;20032;-66
2020/12/02 02:46:38;;;;;;;28.23;12.80;;;;;;;0.28;65.12;100703.34;5104782;28;20099;-66
2020/12/02 02:49:05;;;;;;;33.13;14.07;;;;;;;0.39;64.82;100703.69;5104262;28;20061;-68
2020/12/02 02:51:31;;;;;;;31.37;12.80;;;;;;;0.15;65.48;100700.50;5103100;28;20226;-67
2020/12/02 02:53:57;;;;;;;27.17;11.90;;;;;;;-0.07;65.88;100705.84;5103949;28;20036;-67
2020/12/02 02:56:22;;;;;;;24.60;12.07;;;;;;;0.03;65.68;100703.69;5102976;28;20066;-66
2020/12/02 02:58:48;;;;;;;31.53;13.50;;;;;;;0.23;65.46;100706.19;5104049;28;20036;-68
2020/12/02 03:01:13;;;;;;;34.93;15.30;;;;;;;0.09;66.08;100708.59;5103958;28;20085;-68
2020/12/02 03:03:39;;;;;;;30.30;14.67;;;;;;;0.22;65.31;100709.72;5103917;28;20095;-67
2020/12/02 03:06:05;;;;;;;37.57;14.40;;;;;;;0.27;65.07;100701.66;5103793;28;20044;-68
2020/12/02 03:08:32;;;;;;;35.73;14.70;;;;;;;0.28;65.17;100700.75;5103835;28;20034;-68
2020/12/02 03:11:00;;;;;;;37.20;14.47;;;;;;;0.14;65.32;100703.16;5102669;28;20047;-67
2020/12/02 03:13:43;;;;;;;36.30;14.23;;;;;;;0.13;65.71;100704.09;5103788;28;20051;-68
2020/12/02 03:16:31;;;;;;;145.90;53.70;;;;;;;0.04;65.65;100707.13;5103662;28;20097;-68
2020/12/02 03:19:00;;;;;;;37.90;16.10;;;;;;;0.10;65.83;100712.03;5103732;28;20054;-68
2020/12/02 03:21:26;;;;;;;45.33;16.63;;;;;;;0.12;65.43;100715.44;5103691;28;20043;-66
2020/12/02 03:23:52;;;;;;;49.13;19.17;;;;;;;0.14;64.67;100706.63;5103610;28;20313;-68
2020/12/02 03:26:19;;;;;;;36.93;15.20;;;;;;;0.09;64.71;100716.41;5103488;28;20110;-67
2020/12/02 03:28:45;;;;;;;40.50;16.67;;;;;;;0.05;65.02;100717.47;5103495;28;20066;-67
2020/12/02 03:31:14;;;;;;;34.30;14.60;;;;;;;0.04;65.51;100709.72;5103416;28;20056;-68
2020/12/02 03:33:40;;;;;;;42.20;17.30;;;;;;;0.10;64.79;100712.91;5103396;28;20288;-66
2020/12/02 03:36:07;;;;;;;44.80;18.33;;;;;;;0.09;64.99;100716.41;5103264;28;20036;-68
2020/12/02 03:38:32;;;;;;;42.73;17.27;;;;;;;0.20;64.12;100721.97;5103339;28;20039;-67
2020/12/02 03:40:58;;;;;;;38.97;17.17;;;;;;;0.13;64.56;100730.97;5103287;28;20326;-66
2020/12/02 03:43:24;;;;;;;30.70;14.07;;;;;;;0.18;64.53;100731.59;5103252;28;20091;-68
2020/12/02 03:45:49;;;;;;;33.27;14.80;;;;;;;0.19;64.27;100735.06;5103301;28;20035;-66
2020/12/02 03:48:16;;;;;;;30.53;14.47;;;;;;;0.24;64.05;100735.69;5103101;28;20306;-68
2020/12/02 03:50:42;;;;;;;31.03;14.80;;;;;;;0.07;64.47;100730.41;5102066;28;20293;-67
2020/12/02 03:53:09;;;;;;;34.63;16.07;;;;;;;-0.13;65.41;100726.09;5103093;28;20038;-67
2020/12/02 03:55:35;;;;;;;36.83;17.13;;;;;;;-0.03;65.33;100724.75;5102917;28;20044;-66
2020/12/02 03:58:02;;;;;;;31.63;14.17;;;;;;;-0.03;64.90;100730.81;5103056;28;20203;-68
2020/12/02 04:00:27;;;;;;;37.63;14.47;;;;;;;0.06;65.00;100731.34;5103495;28;20206;-68
2020/12/02 04:02:53;;;;;;;36.93;15.73;;;;;;;0.01;65.30;100725.50;5103324;28;20085;-66
2020/12/02 04:05:19;;;;;;;45.23;17.93;;;;;;;0.02;65.40;100738.44;5103334;28;20103;-66
2020/12/02 04:07:45;;;;;;;46.87;19.57;;;;;;;0.23;63.83;100732.22;5102707;28;20073;-68
2020/12/02 04:10:12;;;;;;;42.93;21.00;;;;;;;-0.02;65.36;100742.06;5102890;28;20263;-66
2020/12/02 04:12:37;;;;;;;44.63;19.47;;;;;;;-0.05;64.80;100737.00;5103012;28;20028;-68
2020/12/02 04:15:05;;;;;;;40.07;21.20;;;;;;;-0.39;66.44;100742.91;5103172;28;20063;-68
2020/12/02 04:17:30;;;;;;;46.23;21.27;;;;;;;-0.43;67.52;100743.94;5102999;28;20203;-67
2020/12/02 04:19:56;;;;;;;39.77;19.13;;;;;;;-0.38;66.82;100741.97;5103107;28;20118;-68
2020/12/02 04:22:21;;;;;;;34.43;17.10;;;;;;;-0.39;66.75;100743.75;5102967;28;20306;-68
2020/12/02 04:24:46;;;;;;;30.30;14.93;;;;;;;-0.33;66.25;100737.41;5103176;28;20034;-67
2020/12/02 04:27:12;;;;;;;36.40;15.83;;;;;;;-0.06;64.87;100741.38;5103073;28;20036;-68
2020/12/02 04:29:37;;;;;;;35.47;16.80;;;;;;;-0.12;64.82;100746.00;5102953;28;20091;-67
2020/12/02 04:32:05;;;;;;;40.37;19.17;;;;;;;-0.19;65.12;100736.78;5102768;28;20095;-68
2020/12/02 04:34:31;;;;;;;61.03;28.47;;;;;;;-0.35;65.97;100736.66;5101413;28;20055;-66
2020/12/02 04:36:56;;;;;;;60.03;27.90;;;;;;;-0.12;64.97;100744.25;5102656;28;20036;-66
2020/12/02 04:39:22;;;;;;;56.00;26.60;;;;;;;-0.11;64.80;100739.88;5102838;28;20035;-66
2020/12/02 04:41:47;;;;;;;58.80;24.23;;;;;;;-0.22;65.01;100748.19;5102812;28;20055;-67
2020/12/02 04:44:13;;;;;;;50.77;24.27;;;;;;;-0.37;65.37;100741.06;5102693;28;20069;-68
2020/12/02 04:46:39;;;;;;;51.23;24.57;;;;;;;-0.50;66.31;100740.78;5102819;28;20044;-68
2020/12/02 04:49:13;;;;;;;54.67;25.10;;;;;;;-0.57;66.79;100746.31;5102703;28;20039;-68
2020/12/02 04:51:40;;;;;;;50.27;25.03;;;;;;;-0.60;67.70;100743.84;5102661;28;20043;-66
2020/12/02 04:54:06;;;;;;;52.57;23.70;;;;;;;-0.47;67.01;100748.44;5102352;28;20254;-67
2020/12/02 04:56:33;;;;;;;58.30;26.13;;;;;;;-0.44;66.79;100743.09;5102460;28;20032;-69
2020/12/02 04:58:58;;;;;;;56.60;25.63;;;;;;;-0.49;67.37;100759.81;5101282;28;20073;-66
2020/12/02 05:01:30;;;;;;;58.30;23.90;;;;;;;-0.44;67.29;100758.72;5102497;28;20044;-66
2020/12/02 05:04:20;;;;;;;54.00;23.00;;;;;;;-0.40;67.42;100760.25;5102606;28;20032;-68
2020/12/02 05:07:06;;;;;;;60.00;26.13;;;;;;;-0.37;67.39;100754.09;5102536;28;20186;-68
2020/12/02 05:09:50;;;;;;;52.80;22.00;;;;;;;-0.44;67.72;100766.53;5102744;28;20107;-68
2020/12/02 05:12:23;;;;;;;46.20;17.48;;;;;;;-0.46;68.08;100764.91;5102819;28;20058;-68
2020/12/02 05:14:49;;;;;;;57.35;23.15;;;;;;;-0.22;66.16;100761.19;5102668;28;20036;-66
2020/12/02 05:17:22;;;;;;;52.60;22.23;;;;;;;-0.17;65.63;100758.41;5102383;28;20028;-68
2020/12/02 05:20:09;;;;;;;48.10;21.45;;;;;;;-0.12;65.64;100759.88;5104582;28;20032;-67
2020/12/02 05:22:37;;;;;;;49.63;21.70;;;;;;;-0.02;64.49;100755.09;5106033;28;20043;-66
2020/12/02 05:25:05;;;;;;;50.93;21.40;;;;;;;-0.09;64.27;100761.50;5106172;28;20065;-68
2020/12/02 05:27:36;;;;;;;47.07;21.80;;;;;;;-0.17;63.11;100758.41;5105807;28;20103;-67
2020/12/02 05:30:26;;;;;;;52.33;21.87;;;;;;;-0.13;64.15;100767.75;5105644;28;20107;-70
2020/12/02 05:33:11;;;;;;;50.77;21.60;;;;;;;-0.11;63.88;100765.94;5100383;28;20059;-66
2020/12/02 05:35:44;;;;;;;53.47;23.17;;;;;;;0.03;63.75;100758.34;5106147;28;20219;-66
2020/12/02 05:38:13;;;;;;;68.43;28.30;;;;;;;-0.20;64.81;100761.13;5105517;28;20120;-68
2020/12/02 05:40:39;;;;;;;57.57;22.57;;;;;;;-0.19;65.01;100760.22;5106117;28;20036;-68
2020/12/02 05:43:27;;;;;;;49.43;20.27;;;;;;;-0.15;65.04;100759.16;5105544;28;20115;-66
2020/12/02 05:45:55;;;;;;;43.23;18.67;;;;;;;-0.15;65.14;100760.00;5105609;28;20051;-68
2020/12/02 05:48:39;;;;;;;55.83;23.03;;;;;;;-0.13;64.84;100770.34;5105315;28;20040;-68
2020/12/02 05:51:08;;;;;;;52.42;21.63;;;;;;;-0.01;64.20;100767.19;5105556;28;20099;-66
2020/12/02 05:53:49;;;;;;;61.57;23.23;;;;;;;-0.03;64.73;100762.06;5105417;28;20217;-68
2020/12/02 05:56:15;;;;;;;57.53;25.30;;;;;;;-0.26;66.11;100767.47;5105155;28;20046;-66
2020/12/02 05:58:42;;;;;;;54.23;24.23;;;;;;;-0.21;66.21;100773.31;5105238;28;20024;-67
2020/12/02 06:01:14;;;;;;;95.37;36.63;;;;;;;-0.30;66.70;100776.31;5104079;28;20055;-67
2020/12/02 06:03:40;;;;;;;91.83;33.00;;;;;;;-0.13;66.08;100778.16;5105015;28;20314;-68
2020/12/02 06:06:12;;;;;;;70.90;28.03;;;;;;;0.07;65.54;100785.09;5105407;28;20047;-67
2020/12/02 06:08:43;;;;;;;58.13;26.10;;;;;;;-0.08;66.07;100784.00;5105026;28;20082;-68
2020/12/02 06:11:14;;;;;;;44.40;18.93;;;;;;;0.08;66.11;100778.97;5103787;28;20238;-68
2020/12/02 06:13:46;;;;;;;49.90;19.93;;;;;;;0.16;65.32;100782.91;5105011;28;20042;-68
2020/12/02 06:16:29;;;;;;;91.17;30.27;;;;;;;0.26;65.23;100789.41;5103679;28;20237;-68
2020/12/02 06:19:01;;;;;;;117.90;40.43;;;;;;;0.34;65.58;100783.81;5105133;28;20063;-66
2020/12/02 06:21:39;;;;;;;120.83;41.90;;;;;;;0.34;65.43;100781.22;5103760;28;20028;-68
2020/12/02 06:24:07;;;;;;;95.73;36.10;;;;;;;0.46;64.88;100779.78;5104866;28;20036;-68
2020/12/02 06:26:44;;;;;;;69.93;26.80;;;;;;;0.39;65.80;100779.25;5103484;28;20036;-68
2020/12/02 06:29:28;;;;;;;93.57;39.73;;;;;;;0.31;66.13;100776.16;5104382;28;20054;-68
2020/12/02 06:32:14;;;;;;;219.85;93.13;;;;;;;0.14;67.09;100787.34;5104651;28;20028;-68
2020/12/02 06:34:40;;;;;;;205.27;89.40;;;;;;;0.27;67.00;100783.25;5104705;28;20242;-68
2020/12/02 06:37:19;;;;;;;199.33;84.90;;;;;;;0.49;65.74;100775.28;5104664;28;20100;-68
2020/12/02 06:39:54;;;;;;;150.90;63.47;;;;;;;0.52;66.27;100785.56;5104381;28;20032;-67
2020/12/02 06:42:31;;;;;;;112.57;47.10;;;;;;;0.62;65.77;100776.38;5104472;28;20020;-67
2020/12/02 06:45:23;;;;;;;116.63;45.90;;;;;;;0.90;65.19;100790.69;5104649;28;20056;-67
2020/12/02 06:47:49;;;;;;;129.57;44.43;;;;;;;1.07;64.54;100790.72;5104599;28;20218;-68
2020/12/02 06:50:23;;;;;;;124.23;46.17;;;;;;;0.89;63.97;100795.06;5104587;28;20035;-67
2020/12/02 06:52:49;;;;;;;126.23;42.80;;;;;;;1.02;64.07;100789.25;5104341;28;20039;-68
2020/12/02 06:55:28;;;;;;;90.33;33.40;;;;;;;0.92;64.67;100789.69;5103825;28;20262;-68
2020/12/02 06:57:56;;;;;;;57.17;24.10;;;;;;;0.75;65.73;100789.66;5104016;28;20035;-68
2020/12/02 07:00:28;;;;;;;51.37;21.93;;;;;;;0.91;65.82;100794.97;5103102;28;20277;-67
2020/12/02 07:02:55;;;;;;;49.47;21.20;;;;;;;1.26;65.41;100794.09;5104107;28;20479;-67
2020/12/02 07:05:45;;;;;;;40.77;18.53;;;;;;;1.33;64.46;100797.25;5104266;28;20051;-67
2020/12/02 07:08:18;;;;;;;30.90;15.43;;;;;;;1.53;63.76;100799.69;5103897;28;20277;-67
2020/12/02 07:11:13;;;;;;;45.50;18.42;;;;;;;1.79;63.29;100797.47;5103967;28;20103;-67
2020/12/02 07:13:42;;;;;;;47.47;20.87;;;;;;;1.78;63.23;100796.63;5103799;28;20040;-67
2020/12/02 07:16:21;;;;;;;45.73;20.40;;;;;;;1.80;62.92;100794.78;5103720;28;20039;-67
2020/12/02 07:18:56;;;;;;;69.37;42.40;;;;;;;1.93;63.06;100800.22;5103793;28;20197;-67
2020/12/02 07:21:42;;;;;;;55.93;32.23;;;;;;;2.37;61.97;100797.84;5103652;28;20028;-67
2020/12/02 07:24:16;;;;;;;39.40;18.77;;;;;;;2.49;61.61;100801.53;5103669;28;20039;-67
2020/12/02 07:26:43;;;;;;;40.50;19.52;;;;;;;2.38;62.06;100809.13;5103598;28;20081;-66
2020/12/02 07:29:18;;;;;;;40.80;22.30;;;;;;;2.34;62.96;100800.63;5102516;28;20036;-66
2020/12/02 07:31:43;;;;;;;39.93;20.50;;;;;;;2.13;63.13;100766.06;5103491;28;20371;-67
2020/12/02 07:34:16;;;;;;;36.43;17.07;;;;;;;2.24;63.61;100775.91;5103367;28;20036;-69
2020/12/02 07:36:42;;;;;;;37.13;15.53;;;;;;;2.50;63.63;100796.22;5103391;28;20042;-67
2020/12/02 07:39:19;;;;;;;35.80;16.73;;;;;;;2.72;63.13;100795.88;5103402;28;20044;-68
2020/12/02 07:42:10;;;;;;;34.37;17.37;;;;;;;2.40;64.24;100802.06;5102889;28;20034;-67
2020/12/02 07:44:44;;;;;;;40.08;18.52;;;;;;;2.28;64.65;100806.19;5102278;28;20036;-68
2020/12/02 07:47:12;;;;;;;;;;;;;;;2.46;65.03;100799.09;5103919;28;20206;-67
2020/12/02 07:49:41;;;;;;;55.43;21.90;;;;;;;2.74;64.15;100807.09;5103267;28;19954;-67
2020/12/02 07:52:16;;;;;;;44.33;19.97;;;;;;;2.81;63.62;100815.44;5103551;28;20024;-67
2020/12/02 07:54:41;;;;;;;45.20;19.30;;;;;;;2.97;63.17;100813.63;5102861;28;20032;-67
2020/12/02 07:57:12;;;;;;;47.40;22.93;;;;;;;3.01;63.57;100816.91;5103401;28;20020;-67
2020/12/02 07:59:47;;;;;;;41.93;20.37;;;;;;;3.19;63.31;100811.50;5103504;28;20059;-68
2020/12/02 08:02:17;;;;;;;43.47;19.95;;;;;;;3.15;63.12;100810.00;5101958;28;20024;-67
2020/12/02 08:04:50;;;;;;;45.63;21.17;;;;;;;3.14;64.15;100810.91;5103182;28;20044;-67
2020/12/02 08:07:16;;;;;;;41.73;18.70;;;;;;;2.99;64.15;100808.31;5103292;28;20067;-69
2020/12/02 08:09:45;;;;;;;41.60;19.27;;;;;;;3.04;63.98;100807.13;5102954;28;20077;-69
2020/12/02 08:12:31;;;;;;;52.70;22.00;;;;;;;3.33;63.37;100808.06;5103040;28;20032;-67
2020/12/02 08:15:09;;;;;;;39.60;19.00;;;;;;;3.04;63.54;100801.03;5103141;28;20067;-69
2020/12/02 08:17:35;;;;;;;41.47;19.87;;;;;;;3.10;63.67;100795.44;5103053;28;20051;-67
2020/12/02 08:20:24;;;;;;;41.23;19.57;;;;;;;3.04;64.28;100803.66;5102778;28;20078;-67
2020/12/02 08:22:54;;;;;;;46.77;19.07;;;;;;;3.24;63.95;100803.38;5102922;28;20028;-67
2020/12/02 08:25:25;;;;;;;47.53;21.53;;;;;;;3.46;63.79;100798.56;5103332;28;20032;-68
2020/12/02 08:27:59;;;;;;;54.33;24.30;;;;;;;3.51;63.66;100796.50;5102774;28;20077;-68
2020/12/02 08:30:29;;;;;;;70.25;27.95;;;;;;;3.76;62.98;100787.19;5103248;28;20040;-68
2020/12/02 08:33:02;;;;;;;54.63;23.63;;;;;;;3.58;62.82;100786.50;5102629;28;20322;-68
2020/12/02 08:35:43;;;;;;;51.25;23.35;;;;;;;3.57;62.96;100787.44;5101616;28;20044;-68
2020/12/02 08:38:37;;;;;;;46.25;22.23;;;;;;;3.51;63.31;100777.34;5102595;28;20383;-66
2020/12/02 08:41:03;;;;;;;44.47;21.13;;;;;;;3.49;64.35;100785.28;5101541;28;20115;-69
2020/12/02 08:43:38;;;;;;;45.47;19.58;;;;;;;3.58;63.08;100773.41;5101480;28;20073;-67
2020/12/02 08:46:13;;;;;;;51.33;22.10;;;;;;;3.65;63.91;100784.38;5102946;28;20206;-68
2020/12/02 08:48:40;;;;;;;42.83;20.13;;;;;;;3.50;63.53;100786.13;5102651;28;20040;-69
2020/12/02 08:51:12;;;;;;;38.20;18.70;;;;;;;3.62;64.16;100779.31;5101509;28;20028;-68
2020/12/02 08:53:38;;;;;;;52.10;22.40;;;;;;;3.80;63.21;100773.78;5104636;28;20310;-68
2020/12/02 08:56:04;;;;;;;83.30;28.70;;;;;;;3.98;63.06;100766.59;5106385;28;20082;-67
2020/12/02 08:58:30;;;;;;;44.25;21.08;;;;;;;3.85;63.56;100771.75;5105273;28;20028;-68
2020/12/02 09:00:55;;;;;;;48.20;23.40;;;;;;;3.80;63.93;100765.09;5106412;28;20038;-68
2020/12/02 09:03:23;;;;;;;53.50;27.50;;;;;;;3.96;61.75;100765.84;5105038;28;20102;-68
2020/12/02 09:05:49;;;;;;;49.07;22.43;;;;;;;3.73;63.18;100761.16;5106189;28;20207;-67
2020/12/02 09:08:16;;;;;;;43.93;20.47;;;;;;;3.55;63.33;100763.13;5106379;28;20024;-67
2020/12/02 09:10:41;;;;;;;48.17;20.25;;;;;;;3.49;63.40;100759.09;5106461;28;20042;-67
2020/12/02 09:13:07;;;;;;;47.60;21.57;;;;;;;3.83;62.66;100742.16;5106161;28;20069;-67
2020/12/02 09:15:32;;;;;;;48.88;21.38;;;;;;;3.74;63.07;100742.75;5106510;28;20174;-66
2020/12/02 09:17:58;;;;;;;43.00;21.60;;;;;;;4.08;61.96;100740.63;5106072;28;20070;-67
2020/12/02 09:20:25;;;;;;;74.87;27.23;;;;;;;4.25;61.39;100736.97;5106541;28;20044;-67
2020/12/02 09:22:51;;;;;;;77.72;27.50;;;;;;;3.98;60.68;100737.75;5105978;28;20074;-67
2020/12/02 09:25:17;;;;;;;101.50;31.63;;;;;;;3.81;59.57;100737.97;5106281;28;20081;-69
2020/12/02 09:27:43;;;;;;;47.47;22.07;;;;;;;3.82;61.79;100732.63;5105825;28;20224;-69
2020/12/02 09:30:09;;;;;;;41.17;18.60;;;;;;;3.94;62.49;100730.19;5106136;28;20047;-68
2020/12/02 09:32:35;;;;;;;42.70;20.15;;;;;;;4.05;59.94;100719.88;5105805;28;20293;-67
2020/12/02 09:35:01;;;;;;;42.13;20.07;;;;;;;4.08;60.24;100722.28;5106004;28;20089;-69
2020/12/02 09:37:26;;;;;;;35.77;19.10;;;;;;;4.23;61.17;100720.50;5104593;28;20098;-69
2020/12/02 09:39:55;;;;;;;40.53;18.95;;;;;;;4.33;61.46;100725.06;5105998;28;20340;-66
2020/12/02 09:42:35;;;;;;;43.95;19.67;;;;;;;4.35;61.34;100719.72;5105655;28;20034;-69
2020/12/02 09:45:06;;;;;;;42.90;18.17;;;;;;;4.24;60.69;100716.94;5105871;28;20366;-67
2020/12/02 09:47:31;;;;;;;39.42;18.35;;;;;;;4.14;61.59;100722.75;5105535;28;20020;-66
2020/12/02 09:49:58;;;;;;;35.75;17.95;;;;;;;4.19;61.61;100724.28;5105686;28;20081;-69
2020/12/02 09:52:36;;;;;;;39.72;19.02;;;;;;;4.42;61.36;100718.38;5105458;28;20031;-67
2020/12/02 09:55:11;;;;;;;39.45;19.88;;;;;;;4.37;61.50;100715.22;5105018;28;20040;-69
2020/12/02 09:57:37;;;;;;;38.80;18.00;;;;;;;4.41;61.12;100711.47;5104190;28;20028;-69
2020/12/02 10:00:05;;;;;;;39.45;17.23;;;;;;;4.33;61.02;100701.47;5105736;28;20222;-69
2020/12/02 10:02:36;;;;;;;43.50;18.55;;;;;;;4.40;61.08;100694.88;5105206;28;20028;-67
2020/12/02 10:05:24;;;;;;;40.35;19.13;;;;;;;4.44;60.05;100691.13;5104658;28;20032;-68
2020/12/02 10:07:56;;;;;;;41.03;19.33;;;;;;;4.65;60.37;100688.03;5104040;28;20020;-67
2020/12/02 10:11:00;;;;;;;42.22;21.25;;;;;;;4.59;60.58;100684.03;5105492;28;20024;-68
2020/12/02 10:13:47;;;;;;;45.00;20.10;;;;;;;4.69;59.15;100672.00;5104897;28;20091;-68
2020/12/02 10:16:46;;;;;;;37.72;19.10;;;;;;;4.53;61.22;100671.31;5104913;28;20087;-69
2020/12/02 10:19:23;;;;;;;44.28;19.08;;;;;;;4.78;59.61;100670.53;5104266;28;20111;-69
2020/12/02 10:22:05;;;;;;;41.63;19.65;;;;;;;4.68;59.69;100674.72;5104934;28;20083;-69
2020/12/02 10:24:31;;;;;;;44.10;20.23;;;;;;;4.77;59.38;100672.31;5105035;28;20107;-68
2020/12/02 10:27:14;;;;;;;39.67;18.90;;;;;;;4.67;59.35;100679.13;5104700;28;20019;-68
2020/12/02 10:30:27;;;;;;;42.42;19.58;;;;;;;4.78;59.06;100668.75;5104585;28;20055;-66
2020/12/02 10:33:25;;;;;;;40.03;19.27;;;;;;;4.76;59.14;100668.03;5103137;28;20031;-68
2020/12/02 10:35:51;;;;;;;39.05;18.40;;;;;;;4.65;58.76;100667.06;5104716;28;20203;-69
2020/12/02 10:38:31;;;;;;;33.88;17.75;;;;;;;4.74;58.32;100659.41;5104324;28;20076;-69
2020/12/02 10:41:10;;;;;;;38.70;17.48;;;;;;;4.82;57.37;100662.34;5104391;28;20088;-66
2020/12/02 10:44:10;;;;;;;45.72;18.05;;;;;;;4.99;56.11;100649.88;5104606;28;20039;-67
2020/12/02 10:47:01;;;;;;;43.03;20.27;;;;;;;4.86;57.97;100656.91;5104331;28;20039;-67
2020/12/02 10:49:29;;;;;;;28.15;13.27;;;;;;;5.02;54.43;100652.31;5104505;28;20039;-68
2020/12/02 10:51:57;;;;;;;35.05;15.10;;;;;;;4.93;53.04;100639.81;5104206;28;20024;-69
2020/12/02 10:54:27;;;;;;;33.30;15.32;;;;;;;4.98;53.07;100640.31;5103840;28;20052;-68
2020/12/02 10:56:57;;;;;;;36.05;16.77;;;;;;;5.06;54.75;100640.66;5104066;28;20032;-66
2020/12/02 10:59:24;;;;;;;38.25;17.00;;;;;;;4.90;55.95;100640.00;5104253;28;20137;-68
2020/12/02 11:01:51;;;;;;;39.17;18.48;;;;;;;4.86;56.87;100628.03;5104048;28;20024;-69
2020/12/02 11:04:18;;;;;;;38.25;18.38;;;;;;;5.02;58.49;100639.16;5103861;28;20218;-66
2020/12/02 11:06:49;;;;;;;40.78;17.67;;;;;;;5.09;57.32;100633.41;5103996;28;20252;-67
2020/12/02 11:09:44;;;;;;;38.42;18.17;;;;;;;5.13;58.14;100629.63;5103935;28;20332;-69
2020/12/02 11:12:23;;;;;;;41.40;18.38;;;;;;;5.15;58.03;100626.88;5104171;28;20218;-69
2020/12/02 11:15:04;;;;;;;37.53;18.40;;;;;;;5.19;57.52;100619.63;5104060;28;20055;-68
2020/12/02 11:18:02;;;;;;;41.30;18.88;;;;;;;5.11;58.14;100623.63;5102933;28;20065;-67
2020/12/02 11:20:56;;;;;;;39.15;19.45;;;;;;;5.18;57.85;100617.97;5104231;28;20081;-67
2020/12/02 11:23:40;;;;;;;36.05;18.00;;;;;;;5.06;59.42;100611.78;5103651;28;20028;-69
2020/12/02 11:26:30;;;;;;;36.33;17.80;;;;;;;5.03;58.57;100606.72;5103636;28;20032;-68
2020/12/02 11:28:58;;;;;;;37.50;17.90;;;;;;;4.98;59.19;100609.66;5103695;28;20099;-69
2020/12/02 11:31:47;;;;;;;34.95;17.42;;;;;;;5.15;58.48;100608.50;5103558;28;20036;-66
2020/12/02 11:34:40;;;;;;;36.80;17.88;;;;;;;5.15;58.36;100608.50;5103492;28;20044;-69
2020/12/02 11:37:10;;;;;;;35.15;16.52;;;;;;;5.11;57.78;100597.38;5103442;28;20027;-68